sensor_id;sensor_type;location;lat;lon;timestamp;temperature;humidity
11035;DHT22;5571;48.110;-1.706;2023-04-25T00:00:22;9.50;99.90
11035;DHT22;5571;48.110;-1.706;2023-04-25T00:02:48;9.40;99.90
11035;DHT22;5571;48.110;-1.706;2023-04-25T00:05:13;9.40;99.90
11035;DHT22;5571;48.110;-1.706;2023-04-25T00:07:40;9.40;99.90
11035;DHT22;5571;48.110;-1.706;2023-04-25T00:10:08;9.40;99.90
11035;DHT22;5571;48.110;-1.706;2023-04-25T00:12:34;9.30;99.90
11035;DHT22;5571;48.110;-1.706;2023-04-25T00:15:01;9.30;99.90
11035;DHT22;5571;48.110;-1.706;2023-04-25T00:17:27;9.30;99.90
11035;DHT22;5571;48.110;-1.706;2023-04-25T00:19:53;9.30;99.90
11035;DHT22;5571;48.110;-1.706;2023-04-25T00:22:19;9.30;99.90
11035;DHT22;5571;48.110;-1.706;2023-04-25T00:24:44;9.30;99.90
11035;DHT22;5571;48.110;-1.706;2023-04-25T00:27:10;9.20;99.90
11035;DHT22;5571;48.110;-1.706;2023-04-25T00:29:36;9.20;99.90
11035;DHT22;5571;48.110;-1.706;2023-04-25T00:32:02;9.20;99.90
11035;DHT22;5571;48.110;-1.706;2023-04-25T00:34:27;9.20;99.90
11035;DHT22;5571;48.110;-1.706;2023-04-25T00:36:53;9.20;99.90
11035;DHT22;5571;48.110;-1.706;2023-04-25T00:39:19;9.20;99.90
11035;DHT22;5571;48.110;-1.706;2023-04-25T00:41:45;9.20;99.90
11035;DHT22;5571;48.110;-1.706;2023-04-25T00:44:11;9.10;99.90
11035;DHT22;5571;48.110;-1.706;2023-04-25T00:46:39;9.10;99.90
11035;DHT22;5571;48.110;-1.706;2023-04-25T00:49:05;9.10;99.90
11035;DHT22;5571;48.110;-1.706;2023-04-25T00:51:32;9.10;99.90
11035;DHT22;5571;48.110;-1.706;2023-04-25T00:53:58;9.20;99.90
11035;DHT22;5571;48.110;-1.706;2023-04-25T00:56:25;9.10;99.90
11035;DHT22;5571;48.110;-1.706;2023-04-25T00:58:53;9.10;99.90
11035;DHT22;5571;48.110;-1.706;2023-04-25T01:01:22;9.00;99.90
11035;DHT22;5571;48.110;-1.706;2023-04-25T01:03:47;9.00;99.90
11035;DHT22;5571;48.110;-1.706;2023-04-25T01:06:15;9.00;99.90
11035;DHT22;5571;48.110;-1.706;2023-04-25T01:08:41;9.10;99.90
11035;DHT22;5571;48.110;-1.706;2023-04-25T01:11:07;9.10;99.90
11035;DHT22;5571;48.110;-1.706;2023-04-25T01:13:33;9.10;99.90
11035;DHT22;5571;48.110;-1.706;2023-04-25T01:15:59;9.00;99.90
11035;DHT22;5571;48.110;-1.706;2023-04-25T01:18:24;9.00;99.90
11035;DHT22;5571;48.110;-1.706;2023-04-25T01:20:51;9.00;99.90
11035;DHT22;5571;48.110;-1.706;2023-04-25T01:23:18;9.00;99.90
11035;DHT22;5571;48.110;-1.706;2023-04-25T01:25:45;9.00;99.90
11035;DHT22;5571;48.110;-1.706;2023-04-25T01:28:11;9.00;99.90
11035;DHT22;5571;48.110;-1.706;2023-04-25T01:30:37;9.00;99.90
11035;DHT22;5571;48.110;-1.706;2023-04-25T01:33:03;8.90;99.90
11035;DHT22;5571;48.110;-1.706;2023-04-25T01:35:30;8.90;99.90
11035;DHT22;5571;48.110;-1.706;2023-04-25T01:37:57;8.90;99.90
11035;DHT22;5571;48.110;-1.706;2023-04-25T01:40:24;8.80;99.90
11035;DHT22;5571;48.110;-1.706;2023-04-25T01:42:49;8.80;99.90
11035;DHT22;5571;48.110;-1.706;2023-04-25T01:45:16;8.80;99.90
11035;DHT22;5571;48.110;-1.706;2023-04-25T01:47:42;8.80;99.90
11035;DHT22;5571;48.110;-1.706;2023-04-25T01:50:09;8.70;99.90
11035;DHT22;5571;48.110;-1.706;2023-04-25T01:52:35;8.80;99.90
11035;DHT22;5571;48.110;-1.706;2023-04-25T01:55:01;8.80;99.90
11035;DHT22;5571;48.110;-1.706;2023-04-25T01:57:27;8.80;99.90
11035;DHT22;5571;48.110;-1.706;2023-04-25T02:00:05;8.80;99.90
11035;DHT22;5571;48.110;-1.706;2023-04-25T02:02:32;8.70;99.90
11035;DHT22;5571;48.110;-1.706;2023-04-25T02:04:57;8.70;99.90
11035;DHT22;5571;48.110;-1.706;2023-04-25T02:07:23;8.70;99.90
11035;DHT22;5571;48.110;-1.706;2023-04-25T02:09:49;8.60;99.90
11035;DHT22;5571;48.110;-1.706;2023-04-25T02:12:14;8.60;99.90
11035;DHT22;5571;48.110;-1.706;2023-04-25T02:14:40;8.60;99.90
11035;DHT22;5571;48.110;-1.706;2023-04-25T02:17:06;8.60;99.90
11035;DHT22;5571;48.110;-1.706;2023-04-25T02:19:32;8.60;99.90
11035;DHT22;5571;48.110;-1.706;2023-04-25T02:21:57;8.60;99.90
11035;DHT22;5571;48.110;-1.706;2023-04-25T02:24:23;8.50;99.90
11035;DHT22;5571;48.110;-1.706;2023-04-25T02:26:49;8.60;99.90
11035;DHT22;5571;48.110;-1.706;2023-04-25T02:29:15;8.60;99.90
11035;DHT22;5571;48.110;-1.706;2023-04-25T02:31:41;8.50;99.90
11035;DHT22;5571;48.110;-1.706;2023-04-25T02:34:07;8.50;99.90
11035;DHT22;5571;48.110;-1.706;2023-04-25T02:36:32;8.50;99.90
11035;DHT22;5571;48.110;-1.706;2023-04-25T02:39:00;8.50;99.90
11035;DHT22;5571;48.110;-1.706;2023-04-25T02:41:26;8.50;99.90
11035;DHT22;5571;48.110;-1.706;2023-04-25T02:43:52;8.50;99.90
11035;DHT22;5571;48.110;-1.706;2023-04-25T02:46:17;8.40;99.90
11035;DHT22;5571;48.110;-1.706;2023-04-25T02:48:43;8.40;99.90
11035;DHT22;5571;48.110;-1.706;2023-04-25T02:51:09;8.40;99.90
11035;DHT22;5571;48.110;-1.706;2023-04-25T02:53:35;8.40;99.90
11035;DHT22;5571;48.110;-1.706;2023-04-25T02:56:01;8.40;99.90
11035;DHT22;5571;48.110;-1.706;2023-04-25T02:58:27;8.40;99.90
11035;DHT22;5571;48.110;-1.706;2023-04-25T03:00:52;8.40;99.90
11035;DHT22;5571;48.110;-1.706;2023-04-25T03:03:18;8.30;99.90
11035;DHT22;5571;48.110;-1.706;2023-04-25T03:05:50;8.40;99.90
11035;DHT22;5571;48.110;-1.706;2023-04-25T03:08:16;8.30;99.90
11035;DHT22;5571;48.110;-1.706;2023-04-25T03:10:42;8.30;99.90
11035;DHT22;5571;48.110;-1.706;2023-04-25T03:13:07;8.30;99.90
11035;DHT22;5571;48.110;-1.706;2023-04-25T03:15:33;8.30;99.90
11035;DHT22;5571;48.110;-1.706;2023-04-25T03:17:59;8.30;99.90
11035;DHT22;5571;48.110;-1.706;2023-04-25T03:20:24;8.30;99.90
11035;DHT22;5571;48.110;-1.706;2023-04-25T03:22:50;8.30;99.90
11035;DHT22;5571;48.110;-1.706;2023-04-25T03:25:15;8.30;99.90
11035;DHT22;5571;48.110;-1.706;2023-04-25T03:27:41;8.30;99.90
11035;DHT22;5571;48.110;-1.706;2023-04-25T03:30:07;8.30;99.90
11035;DHT22;5571;48.110;-1.706;2023-04-25T03:32:33;8.30;99.90
11035;DHT22;5571;48.110;-1.706;2023-04-25T03:34:59;8.20;99.90
11035;DHT22;5571;48.110;-1.706;2023-04-25T03:37:25;8.30;99.90
11035;DHT22;5571;48.110;-1.706;2023-04-25T03:39:50;8.20;99.90
11035;DHT22;5571;48.110;-1.706;2023-04-25T03:42:16;8.20;99.90
11035;DHT22;5571;48.110;-1.706;2023-04-25T03:44:43;8.20;99.90
11035;DHT22;5571;48.110;-1.706;2023-04-25T03:47:08;8.20;99.90
11035;DHT22;5571;48.110;-1.706;2023-04-25T03:49:34;8.10;99.90
11035;DHT22;5571;48.110;-1.706;2023-04-25T03:52:01;8.10;99.90
11035;DHT22;5571;48.110;-1.706;2023-04-25T03:54:26;8.00;99.90
11035;DHT22;5571;48.110;-1.706;2023-04-25T03:56:52;8.00;99.90
11035;DHT22;5571;48.110;-1.706;2023-04-25T03:59:18;8.00;99.90
11035;DHT22;5571;48.110;-1.706;2023-04-25T04:01:43;7.90;99.90
11035;DHT22;5571;48.110;-1.706;2023-04-25T04:04:09;7.90;99.90
11035;DHT22;5571;48.110;-1.706;2023-04-25T04:06:35;7.90;99.90
11035;DHT22;5571;48.110;-1.706;2023-04-25T04:09:02;7.90;99.90
11035;DHT22;5571;48.110;-1.706;2023-04-25T04:11:27;7.80;99.90
11035;DHT22;5571;48.110;-1.706;2023-04-25T04:13:53;7.90;99.90
11035;DHT22;5571;48.110;-1.706;2023-04-25T04:16:18;7.90;99.90
11035;DHT22;5571;48.110;-1.706;2023-04-25T04:18:45;7.90;99.90
11035;DHT22;5571;48.110;-1.706;2023-04-25T04:21:11;7.90;99.90
11035;DHT22;5571;48.110;-1.706;2023-04-25T04:23:37;7.90;99.90
11035;DHT22;5571;48.110;-1.706;2023-04-25T04:26:03;7.90;99.90
11035;DHT22;5571;48.110;-1.706;2023-04-25T04:28:28;7.90;99.90
11035;DHT22;5571;48.110;-1.706;2023-04-25T04:30:54;7.90;99.90
11035;DHT22;5571;48.110;-1.706;2023-04-25T04:33:20;7.90;99.90
11035;DHT22;5571;48.110;-1.706;2023-04-25T04:35:46;7.90;99.90
11035;DHT22;5571;48.110;-1.706;2023-04-25T04:38:14;7.90;99.90
11035;DHT22;5571;48.110;-1.706;2023-04-25T04:40:41;7.90;99.90
11035;DHT22;5571;48.110;-1.706;2023-04-25T04:43:08;8.00;99.90
11035;DHT22;5571;48.110;-1.706;2023-04-25T04:45:36;8.10;99.90
11035;DHT22;5571;48.110;-1.706;2023-04-25T04:48:05;8.20;99.90
11035;DHT22;5571;48.110;-1.706;2023-04-25T04:50:31;8.20;99.90
11035;DHT22;5571;48.110;-1.706;2023-04-25T04:52:58;8.20;99.90
11035;DHT22;5571;48.110;-1.706;2023-04-25T04:55:23;8.10;99.90
11035;DHT22;5571;48.110;-1.706;2023-04-25T04:57:49;8.10;99.90
11035;DHT22;5571;48.110;-1.706;2023-04-25T05:00:15;8.00;99.90
11035;DHT22;5571;48.110;-1.706;2023-04-25T05:02:41;8.00;99.90
11035;DHT22;5571;48.110;-1.706;2023-04-25T05:05:07;8.00;99.90
11035;DHT22;5571;48.110;-1.706;2023-04-25T05:07:33;7.90;99.90
11035;DHT22;5571;48.110;-1.706;2023-04-25T05:09:59;7.90;99.90
11035;DHT22;5571;48.110;-1.706;2023-04-25T05:12:24;7.90;99.90
11035;DHT22;5571;48.110;-1.706;2023-04-25T05:14:50;7.90;99.90
11035;DHT22;5571;48.110;-1.706;2023-04-25T05:17:16;8.00;99.90
11035;DHT22;5571;48.110;-1.706;2023-04-25T05:19:41;8.00;99.90
11035;DHT22;5571;48.110;-1.706;2023-04-25T05:22:07;8.00;99.90
11035;DHT22;5571;48.110;-1.706;2023-04-25T05:24:32;8.00;99.90
11035;DHT22;5571;48.110;-1.706;2023-04-25T05:26:58;7.90;99.90
11035;DHT22;5571;48.110;-1.706;2023-04-25T05:29:24;7.90;99.90
11035;DHT22;5571;48.110;-1.706;2023-04-25T05:31:49;7.90;99.90
11035;DHT22;5571;48.110;-1.706;2023-04-25T05:34:15;7.90;99.90
11035;DHT22;5571;48.110;-1.706;2023-04-25T05:36:42;7.90;99.90
11035;DHT22;5571;48.110;-1.706;2023-04-25T05:39:07;8.00;99.90
11035;DHT22;5571;48.110;-1.706;2023-04-25T05:41:34;8.00;99.90
11035;DHT22;5571;48.110;-1.706;2023-04-25T05:43:59;8.00;99.90
11035;DHT22;5571;48.110;-1.706;2023-04-25T05:46:25;8.00;99.90
11035;DHT22;5571;48.110;-1.706;2023-04-25T05:48:51;8.10;99.90
11035;DHT22;5571;48.110;-1.706;2023-04-25T05:51:16;8.10;99.90
11035;DHT22;5571;48.110;-1.706;2023-04-25T05:53:43;8.10;99.90
11035;DHT22;5571;48.110;-1.706;2023-04-25T05:56:09;8.20;99.90
11035;DHT22;5571;48.110;-1.706;2023-04-25T05:58:35;8.20;99.90
11035;DHT22;5571;48.110;-1.706;2023-04-25T06:01:01;8.20;99.90
11035;DHT22;5571;48.110;-1.706;2023-04-25T06:03:27;8.30;99.90
11035;DHT22;5571;48.110;-1.706;2023-04-25T06:05:53;8.30;99.90
11035;DHT22;5571;48.110;-1.706;2023-04-25T06:08:19;8.30;99.90
11035;DHT22;5571;48.110;-1.706;2023-04-25T06:10:44;8.30;99.90
11035;DHT22;5571;48.110;-1.706;2023-04-25T06:13:10;8.40;99.90
11035;DHT22;5571;48.110;-1.706;2023-04-25T06:15:36;8.40;99.90
11035;DHT22;5571;48.110;-1.706;2023-04-25T06:18:02;8.40;99.90
11035;DHT22;5571;48.110;-1.706;2023-04-25T06:20:27;8.40;99.90
11035;DHT22;5571;48.110;-1.706;2023-04-25T06:22:53;8.40;99.90
11035;DHT22;5571;48.110;-1.706;2023-04-25T06:25:19;8.40;99.90
11035;DHT22;5571;48.110;-1.706;2023-04-25T06:27:45;8.40;99.90
11035;DHT22;5571;48.110;-1.706;2023-04-25T06:30:11;8.40;99.90
11035;DHT22;5571;48.110;-1.706;2023-04-25T06:32:38;8.60;99.90
11035;DHT22;5571;48.110;-1.706;2023-04-25T06:35:04;8.60;99.90
11035;DHT22;5571;48.110;-1.706;2023-04-25T06:37:29;8.70;99.90
11035;DHT22;5571;48.110;-1.706;2023-04-25T06:39:55;8.70;99.90
11035;DHT22;5571;48.110;-1.706;2023-04-25T06:42:21;8.80;99.90
11035;DHT22;5571;48.110;-1.706;2023-04-25T06:44:46;8.90;99.90
11035;DHT22;5571;48.110;-1.706;2023-04-25T06:47:12;9.00;99.90
11035;DHT22;5571;48.110;-1.706;2023-04-25T06:49:38;9.10;99.90
11035;DHT22;5571;48.110;-1.706;2023-04-25T06:52:03;9.10;99.90
11035;DHT22;5571;48.110;-1.706;2023-04-25T06:54:29;9.20;99.90
11035;DHT22;5571;48.110;-1.706;2023-04-25T06:56:55;9.30;99.90
11035;DHT22;5571;48.110;-1.706;2023-04-25T06:59:21;9.40;99.90
11035;DHT22;5571;48.110;-1.706;2023-04-25T07:01:47;9.50;99.90
11035;DHT22;5571;48.110;-1.706;2023-04-25T07:04:13;9.60;99.90
11035;DHT22;5571;48.110;-1.706;2023-04-25T07:06:38;9.70;99.90
11035;DHT22;5571;48.110;-1.706;2023-04-25T07:09:08;9.80;99.90
11035;DHT22;5571;48.110;-1.706;2023-04-25T07:11:35;9.90;99.90
11035;DHT22;5571;48.110;-1.706;2023-04-25T07:14:01;10.00;99.90
11035;DHT22;5571;48.110;-1.706;2023-04-25T07:16:26;10.10;99.90
11035;DHT22;5571;48.110;-1.706;2023-04-25T07:18:52;10.10;99.90
11035;DHT22;5571;48.110;-1.706;2023-04-25T07:21:18;10.20;99.90
11035;DHT22;5571;48.110;-1.706;2023-04-25T07:23:43;10.30;99.90
11035;DHT22;5571;48.110;-1.706;2023-04-25T07:26:09;10.40;99.90
11035;DHT22;5571;48.110;-1.706;2023-04-25T07:28:35;10.50;99.90
11035;DHT22;5571;48.110;-1.706;2023-04-25T07:31:00;10.40;99.90
11035;DHT22;5571;48.110;-1.706;2023-04-25T07:33:26;10.40;99.90
11035;DHT22;5571;48.110;-1.706;2023-04-25T07:35:52;10.50;99.90
11035;DHT22;5571;48.110;-1.706;2023-04-25T07:38:18;10.50;99.90
11035;DHT22;5571;48.110;-1.706;2023-04-25T07:40:43;10.60;99.90
11035;DHT22;5571;48.110;-1.706;2023-04-25T07:43:09;10.60;99.90
11035;DHT22;5571;48.110;-1.706;2023-04-25T07:45:37;10.50;99.90
11035;DHT22;5571;48.110;-1.706;2023-04-25T07:48:03;10.60;99.90
11035;DHT22;5571;48.110;-1.706;2023-04-25T07:50:28;10.50;99.90
11035;DHT22;5571;48.110;-1.706;2023-04-25T07:52:54;10.60;99.90
11035;DHT22;5571;48.110;-1.706;2023-04-25T07:55:20;10.70;99.90
11035;DHT22;5571;48.110;-1.706;2023-04-25T07:57:45;10.70;99.90
11035;DHT22;5571;48.110;-1.706;2023-04-25T08:00:11;10.80;99.90
11035;DHT22;5571;48.110;-1.706;2023-04-25T08:02:38;10.80;99.90
11035;DHT22;5571;48.110;-1.706;2023-04-25T08:05:04;10.80;99.90
11035;DHT22;5571;48.110;-1.706;2023-04-25T08:07:29;10.80;99.90
11035;DHT22;5571;48.110;-1.706;2023-04-25T08:09:55;10.80;99.90
11035;DHT22;5571;48.110;-1.706;2023-04-25T08:12:20;10.90;99.90
11035;DHT22;5571;48.110;-1.706;2023-04-25T08:14:46;10.90;99.90
11035;DHT22;5571;48.110;-1.706;2023-04-25T08:17:13;10.90;99.90
11035;DHT22;5571;48.110;-1.706;2023-04-25T08:19:38;10.90;99.90
11035;DHT22;5571;48.110;-1.706;2023-04-25T08:22:04;11.00;99.90
11035;DHT22;5571;48.110;-1.706;2023-04-25T08:24:30;10.90;99.90
11035;DHT22;5571;48.110;-1.706;2023-04-25T08:26:56;10.90;99.90
11035;DHT22;5571;48.110;-1.706;2023-04-25T08:29:21;10.90;99.90
11035;DHT22;5571;48.110;-1.706;2023-04-25T08:31:49;11.00;99.90
11035;DHT22;5571;48.110;-1.706;2023-04-25T08:34:15;11.10;99.90
11035;DHT22;5571;48.110;-1.706;2023-04-25T08:36:41;11.10;99.90
11035;DHT22;5571;48.110;-1.706;2023-04-25T08:39:07;11.20;99.90
11035;DHT22;5571;48.110;-1.706;2023-04-25T08:41:32;11.30;99.90
11035;DHT22;5571;48.110;-1.706;2023-04-25T08:43:59;11.30;99.90
11035;DHT22;5571;48.110;-1.706;2023-04-25T08:46:26;11.30;99.90
11035;DHT22;5571;48.110;-1.706;2023-04-25T08:48:53;11.30;99.90
11035;DHT22;5571;48.110;-1.706;2023-04-25T08:51:23;11.30;99.90
11035;DHT22;5571;48.110;-1.706;2023-04-25T08:53:51;11.30;99.90
11035;DHT22;5571;48.110;-1.706;2023-04-25T08:56:17;11.40;99.90
11035;DHT22;5571;48.110;-1.706;2023-04-25T08:58:47;11.50;99.90
11035;DHT22;5571;48.110;-1.706;2023-04-25T09:01:13;11.50;99.90
11035;DHT22;5571;48.110;-1.706;2023-04-25T09:03:38;11.60;99.90
11035;DHT22;5571;48.110;-1.706;2023-04-25T09:06:04;11.70;99.90
11035;DHT22;5571;48.110;-1.706;2023-04-25T09:08:30;11.70;99.90
11035;DHT22;5571;48.110;-1.706;2023-04-25T09:10:56;11.70;99.90
11035;DHT22;5571;48.110;-1.706;2023-04-25T09:13:26;11.70;99.90
11035;DHT22;5571;48.110;-1.706;2023-04-25T09:15:57;11.70;99.90
11035;DHT22;5571;48.110;-1.706;2023-04-25T09:18:23;11.70;99.90
11035;DHT22;5571;48.110;-1.706;2023-04-25T09:20:52;11.70;99.90
11035;DHT22;5571;48.110;-1.706;2023-04-25T09:23:22;11.70;99.90
11035;DHT22;5571;48.110;-1.706;2023-04-25T09:25:52;11.70;99.90
11035;DHT22;5571;48.110;-1.706;2023-04-25T09:28:28;11.70;99.90
11035;DHT22;5571;48.110;-1.706;2023-04-25T09:30:57;11.60;99.90
11035;DHT22;5571;48.110;-1.706;2023-04-25T09:33:28;11.70;99.90
11035;DHT22;5571;48.110;-1.706;2023-04-25T09:38:31;12.00;99.90
11035;DHT22;5571;48.110;-1.706;2023-04-25T09:40:57;12.10;99.90
11035;DHT22;5571;48.110;-1.706;2023-04-25T09:43:24;12.10;99.90
11035;DHT22;5571;48.110;-1.706;2023-04-25T09:45:54;12.20;99.90
11035;DHT22;5571;48.110;-1.706;2023-04-25T09:48:24;12.10;99.90
11035;DHT22;5571;48.110;-1.706;2023-04-25T09:53:37;12.20;99.90
11035;DHT22;5571;48.110;-1.706;2023-04-25T09:56:07;12.20;99.90
11035;DHT22;5571;48.110;-1.706;2023-04-25T09:58:35;12.00;99.90
11035;DHT22;5571;48.110;-1.706;2023-04-25T10:01:04;12.10;99.90
11035;DHT22;5571;48.110;-1.706;2023-04-25T10:03:32;12.10;99.90
11035;DHT22;5571;48.110;-1.706;2023-04-25T10:06:04;12.20;99.90
11035;DHT22;5571;48.110;-1.706;2023-04-25T10:08:34;12.20;99.90
11035;DHT22;5571;48.110;-1.706;2023-04-25T10:11:03;12.30;99.90
11035;DHT22;5571;48.110;-1.706;2023-04-25T10:13:32;12.20;99.90
11035;DHT22;5571;48.110;-1.706;2023-04-25T10:16:01;12.30;99.90
11035;DHT22;5571;48.110;-1.706;2023-04-25T10:18:28;12.40;99.90
11035;DHT22;5571;48.110;-1.706;2023-04-25T10:20:59;12.50;99.90
11035;DHT22;5571;48.110;-1.706;2023-04-25T10:23:26;12.50;99.90
11035;DHT22;5571;48.110;-1.706;2023-04-25T10:25:52;12.50;99.90
11035;DHT22;5571;48.110;-1.706;2023-04-25T10:28:19;12.60;99.90
11035;DHT22;5571;48.110;-1.706;2023-04-25T10:31:08;12.60;99.90
11035;DHT22;5571;48.110;-1.706;2023-04-25T10:33:34;12.50;99.90
11035;DHT22;5571;48.110;-1.706;2023-04-25T10:36:12;12.30;99.90
11035;DHT22;5571;48.110;-1.706;2023-04-25T10:38:39;12.30;99.90
11035;DHT22;5571;48.110;-1.706;2023-04-25T10:41:06;12.20;99.90
11035;DHT22;5571;48.110;-1.706;2023-04-25T10:43:43;12.30;99.90
11035;DHT22;5571;48.110;-1.706;2023-04-25T10:46:17;12.40;99.90
11035;DHT22;5571;48.110;-1.706;2023-04-25T10:53:44;12.60;99.90
11035;DHT22;5571;48.110;-1.706;2023-04-25T10:56:19;12.60;99.90
11035;DHT22;5571;48.110;-1.706;2023-04-25T10:58:47;12.80;99.90
11035;DHT22;5571;48.110;-1.706;2023-04-25T11:01:21;12.90;99.90
11035;DHT22;5571;48.110;-1.706;2023-04-25T11:03:57;13.10;99.90
11035;DHT22;5571;48.110;-1.706;2023-04-25T11:06:35;13.20;99.90
11035;DHT22;5571;48.110;-1.706;2023-04-25T11:09:03;13.20;99.90
11035;DHT22;5571;48.110;-1.706;2023-04-25T11:11:36;13.30;99.90
11035;DHT22;5571;48.110;-1.706;2023-04-25T11:14:02;13.30;99.90
11035;DHT22;5571;48.110;-1.706;2023-04-25T11:16:28;13.20;99.90
11035;DHT22;5571;48.110;-1.706;2023-04-25T11:18:53;13.20;99.90
11035;DHT22;5571;48.110;-1.706;2023-04-25T11:21:22;13.10;99.90
11035;DHT22;5571;48.110;-1.706;2023-04-25T11:23:47;13.10;99.90
11035;DHT22;5571;48.110;-1.706;2023-04-25T11:26:13;13.20;99.90
11035;DHT22;5571;48.110;-1.706;2023-04-25T11:28:40;13.40;99.90
11035;DHT22;5571;48.110;-1.706;2023-04-25T11:31:06;13.60;99.90
11035;DHT22;5571;48.110;-1.706;2023-04-25T11:33:32;13.40;99.90
11035;DHT22;5571;48.110;-1.706;2023-04-25T11:35:58;13.40;99.90
11035;DHT22;5571;48.110;-1.706;2023-04-25T11:38:24;13.50;99.90
11035;DHT22;5571;48.110;-1.706;2023-04-25T11:40:54;13.50;99.90
11035;DHT22;5571;48.110;-1.706;2023-04-25T11:43:22;13.40;99.90
11035;DHT22;5571;48.110;-1.706;2023-04-25T11:45:49;13.50;99.90
11035;DHT22;5571;48.110;-1.706;2023-04-25T11:48:17;13.60;99.90
11035;DHT22;5571;48.110;-1.706;2023-04-25T11:50:43;13.70;99.90
11035;DHT22;5571;48.110;-1.706;2023-04-25T11:53:08;13.60;99.90
11035;DHT22;5571;48.110;-1.706;2023-04-25T11:55:34;13.40;99.90
11035;DHT22;5571;48.110;-1.706;2023-04-25T11:58:01;13.50;99.90
11035;DHT22;5571;48.110;-1.706;2023-04-25T12:00:28;13.50;99.90
11035;DHT22;5571;48.110;-1.706;2023-04-25T12:02:54;13.60;99.90
11035;DHT22;5571;48.110;-1.706;2023-04-25T12:05:24;13.60;99.90
11035;DHT22;5571;48.110;-1.706;2023-04-25T12:07:50;13.70;99.90
11035;DHT22;5571;48.110;-1.706;2023-04-25T12:10:17;13.60;99.90
11035;DHT22;5571;48.110;-1.706;2023-04-25T12:12:44;13.70;99.90
11035;DHT22;5571;48.110;-1.706;2023-04-25T12:15:13;13.70;99.90
11035;DHT22;5571;48.110;-1.706;2023-04-25T12:17:41;13.70;99.90
11035;DHT22;5571;48.110;-1.706;2023-04-25T12:20:13;13.70;99.90
11035;DHT22;5571;48.110;-1.706;2023-04-25T12:22:47;13.80;99.90
11035;DHT22;5571;48.110;-1.706;2023-04-25T12:25:14;13.70;99.90
11035;DHT22;5571;48.110;-1.706;2023-04-25T12:28:12;13.50;99.90
11035;DHT22;5571;48.110;-1.706;2023-04-25T12:30:58;13.50;99.90
11035;DHT22;5571;48.110;-1.706;2023-04-25T12:33:25;13.30;99.90
11035;DHT22;5571;48.110;-1.706;2023-04-25T12:35:50;13.40;99.90
11035;DHT22;5571;48.110;-1.706;2023-04-25T12:38:27;13.30;99.90
11035;DHT22;5571;48.110;-1.706;2023-04-25T12:40:55;13.30;99.90
11035;DHT22;5571;48.110;-1.706;2023-04-25T12:43:21;13.40;99.90
11035;DHT22;5571;48.110;-1.706;2023-04-25T12:45:51;13.40;99.90
11035;DHT22;5571;48.110;-1.706;2023-04-25T12:48:18;13.40;99.90
11035;DHT22;5571;48.110;-1.706;2023-04-25T12:50:43;13.40;99.90
11035;DHT22;5571;48.110;-1.706;2023-04-25T12:53:10;13.30;99.90
11035;DHT22;5571;48.110;-1.706;2023-04-25T12:55:35;13.30;99.90
11035;DHT22;5571;48.110;-1.706;2023-04-25T12:58:01;13.30;99.90
11035;DHT22;5571;48.110;-1.706;2023-04-25T13:00:29;13.30;99.90
11035;DHT22;5571;48.110;-1.706;2023-04-25T13:02:55;13.30;99.90
11035;DHT22;5571;48.110;-1.706;2023-04-25T13:05:20;13.40;99.90
11035;DHT22;5571;48.110;-1.706;2023-04-25T13:07:46;13.60;99.90
11035;DHT22;5571;48.110;-1.706;2023-04-25T13:10:12;13.70;99.90
11035;DHT22;5571;48.110;-1.706;2023-04-25T13:12:37;13.80;99.90
11035;DHT22;5571;48.110;-1.706;2023-04-25T13:15:03;13.90;99.90
11035;DHT22;5571;48.110;-1.706;2023-04-25T13:17:29;14.00;99.90
11035;DHT22;5571;48.110;-1.706;2023-04-25T13:19:55;14.10;99.90
11035;DHT22;5571;48.110;-1.706;2023-04-25T13:22:20;14.10;99.90
11035;DHT22;5571;48.110;-1.706;2023-04-25T13:24:46;14.10;99.90
11035;DHT22;5571;48.110;-1.706;2023-04-25T13:27:12;14.10;99.90
11035;DHT22;5571;48.110;-1.706;2023-04-25T13:29:38;14.20;99.90
11035;DHT22;5571;48.110;-1.706;2023-04-25T13:32:06;14.30;99.90
11035;DHT22;5571;48.110;-1.706;2023-04-25T13:34:32;14.40;99.90
11035;DHT22;5571;48.110;-1.706;2023-04-25T13:36:57;14.40;99.90
11035;DHT22;5571;48.110;-1.706;2023-04-25T13:39:24;14.40;99.90
11035;DHT22;5571;48.110;-1.706;2023-04-25T13:41:50;14.50;99.90
11035;DHT22;5571;48.110;-1.706;2023-04-25T13:44:15;14.50;99.90
11035;DHT22;5571;48.110;-1.706;2023-04-25T13:46:41;14.40;99.90
11035;DHT22;5571;48.110;-1.706;2023-04-25T13:49:07;14.30;99.90
11035;DHT22;5571;48.110;-1.706;2023-04-25T13:51:32;14.40;99.90
11035;DHT22;5571;48.110;-1.706;2023-04-25T13:53:58;14.50;99.90
11035;DHT22;5571;48.110;-1.706;2023-04-25T13:56:23;14.70;99.90
11035;DHT22;5571;48.110;-1.706;2023-04-25T13:58:52;14.80;99.90
11035;DHT22;5571;48.110;-1.706;2023-04-25T14:01:18;14.70;99.90
11035;DHT22;5571;48.110;-1.706;2023-04-25T14:03:45;14.80;99.90
11035;DHT22;5571;48.110;-1.706;2023-04-25T14:06:10;14.80;99.90
11035;DHT22;5571;48.110;-1.706;2023-04-25T14:08:38;14.80;99.90
11035;DHT22;5571;48.110;-1.706;2023-04-25T14:11:03;14.80;99.90
11035;DHT22;5571;48.110;-1.706;2023-04-25T14:13:29;14.90;99.90
11035;DHT22;5571;48.110;-1.706;2023-04-25T14:15:55;14.80;99.90
11035;DHT22;5571;48.110;-1.706;2023-04-25T14:18:21;14.90;99.90
11035;DHT22;5571;48.110;-1.706;2023-04-25T14:20:46;15.00;99.90
11035;DHT22;5571;48.110;-1.706;2023-04-25T14:23:12;15.00;99.90
11035;DHT22;5571;48.110;-1.706;2023-04-25T14:25:38;15.00;99.90
11035;DHT22;5571;48.110;-1.706;2023-04-25T14:28:03;14.90;99.90
11035;DHT22;5571;48.110;-1.706;2023-04-25T14:30:29;14.70;99.90
11035;DHT22;5571;48.110;-1.706;2023-04-25T14:32:55;14.50;99.90
11035;DHT22;5571;48.110;-1.706;2023-04-25T14:35:20;14.50;99.90
11035;DHT22;5571;48.110;-1.706;2023-04-25T14:37:46;14.30;99.90
11035;DHT22;5571;48.110;-1.706;2023-04-25T14:40:13;14.20;99.90
11035;DHT22;5571;48.110;-1.706;2023-04-25T14:42:40;14.30;99.90
11035;DHT22;5571;48.110;-1.706;2023-04-25T14:45:07;14.30;99.90
11035;DHT22;5571;48.110;-1.706;2023-04-25T14:47:34;14.30;99.90
11035;DHT22;5571;48.110;-1.706;2023-04-25T14:50:00;14.20;99.90
11035;DHT22;5571;48.110;-1.706;2023-04-25T14:52:27;14.20;99.90
11035;DHT22;5571;48.110;-1.706;2023-04-25T14:54:52;14.20;99.90
11035;DHT22;5571;48.110;-1.706;2023-04-25T14:57:18;14.20;99.90
11035;DHT22;5571;48.110;-1.706;2023-04-25T14:59:44;14.30;99.90
11035;DHT22;5571;48.110;-1.706;2023-04-25T15:02:09;14.40;99.90
11035;DHT22;5571;48.110;-1.706;2023-04-25T15:04:36;14.40;99.90
11035;DHT22;5571;48.110;-1.706;2023-04-25T15:07:01;14.50;99.90
11035;DHT22;5571;48.110;-1.706;2023-04-25T15:09:27;14.60;99.90
11035;DHT22;5571;48.110;-1.706;2023-04-25T15:11:53;14.80;99.90
11035;DHT22;5571;48.110;-1.706;2023-04-25T15:14:18;14.70;99.90
11035;DHT22;5571;48.110;-1.706;2023-04-25T15:16:44;14.70;99.90
11035;DHT22;5571;48.110;-1.706;2023-04-25T15:19:10;14.60;99.90
11035;DHT22;5571;48.110;-1.706;2023-04-25T15:21:36;14.60;99.90
11035;DHT22;5571;48.110;-1.706;2023-04-25T15:24:02;14.60;99.90
11035;DHT22;5571;48.110;-1.706;2023-04-25T15:26:27;14.60;99.90
11035;DHT22;5571;48.110;-1.706;2023-04-25T15:28:53;14.50;99.90
11035;DHT22;5571;48.110;-1.706;2023-04-25T15:31:19;14.30;99.90
11035;DHT22;5571;48.110;-1.706;2023-04-25T15:33:45;14.20;99.90
11035;DHT22;5571;48.110;-1.706;2023-04-25T15:36:11;14.00;99.90
11035;DHT22;5571;48.110;-1.706;2023-04-25T15:38:37;14.00;99.90
11035;DHT22;5571;48.110;-1.706;2023-04-25T15:41:03;14.00;99.90
11035;DHT22;5571;48.110;-1.706;2023-04-25T15:43:30;13.80;99.90